createdAt,value
2022-10-01T00:00:55.456Z,40.15
2022-10-01T00:03:57.734Z,41.67
2022-10-01T00:07:04.581Z,44.13
2022-10-01T00:10:07.934Z,46.27
2022-10-01T00:13:11.192Z,46.53
2022-10-01T00:16:16.416Z,45.60
2022-10-01T00:19:18.691Z,47.67
2022-10-01T00:22:20.975Z,68.80
2022-10-01T00:25:25.444Z,53.80
2022-10-01T00:28:27.629Z,45.50
2022-10-01T00:31:30.270Z,46.22
2022-10-01T00:34:32.561Z,45.00
2022-10-01T00:37:37.804Z,39.67
2022-10-01T00:40:39.922Z,45.80
2022-10-01T00:43:47.879Z,44.07
2022-10-01T00:46:50.247Z,48.58
2022-10-01T00:49:59.195Z,47.92
2022-10-01T00:53:08.579Z,50.53
2022-10-01T00:56:10.914Z,53.93
2022-10-01T00:59:13.557Z,49.90
2022-10-01T01:02:17.122Z,55.63
2022-10-01T01:05:20.086Z,60.65
2022-10-01T01:08:22.259Z,51.53
2022-10-01T01:11:40.105Z,46.00
2022-10-01T01:14:58.043Z,50.40
2022-10-01T01:18:13.225Z,49.88
2022-10-01T01:21:29.394Z,52.08
2022-10-01T01:24:31.529Z,53.78
2022-10-01T01:27:38.495Z,58.10
2022-10-01T01:30:41.545Z,59.50
2022-10-01T01:33:47.233Z,53.53
2022-10-01T01:36:56.206Z,55.40
2022-10-01T01:39:59.946Z,52.83
2022-10-01T01:43:05.630Z,47.70
2022-10-01T01:46:10.226Z,47.83
2022-10-01T01:49:14.353Z,44.13
2022-10-01T01:52:17.406Z,43.60
2022-10-01T01:55:21.189Z,37.88
2022-10-01T01:58:26.195Z,38.27
2022-10-01T02:01:35.429Z,40.17
2022-10-01T02:04:50.100Z,42.22
2022-10-01T02:08:01.832Z,38.58
2022-10-01T02:11:29.133Z,42.00
2022-10-01T02:14:46.761Z,42.17
2022-10-01T02:18:03.424Z,38.23
2022-10-01T02:21:12.103Z,39.92
2022-10-01T02:24:34.873Z,41.80
2022-10-01T02:27:41.071Z,42.75
2022-10-01T02:30:47.136Z,40.47
2022-10-01T02:33:53.094Z,42.43
2022-10-01T02:36:56.380Z,42.63
2022-10-01T02:39:59.829Z,41.10
2022-10-01T02:43:10.265Z,44.05
2022-10-01T02:46:42.188Z,40.37
2022-10-01T02:49:44.481Z,37.47
2022-10-01T02:52:59.174Z,37.05
2022-10-01T02:56:03.208Z,38.40
2022-10-01T02:59:08.831Z,38.10
2022-10-01T03:02:11.324Z,39.90
2022-10-01T03:05:14.750Z,40.23
2022-10-01T03:08:16.951Z,40.70
2022-10-01T03:11:21.170Z,42.50
2022-10-01T03:14:24.641Z,38.55
2022-10-01T03:17:27.119Z,39.30
2022-10-01T03:20:29.257Z,35.90
2022-10-01T03:23:31.438Z,38.75
2022-10-01T03:26:33.641Z,38.10
2022-10-01T03:29:35.881Z,37.55
2022-10-01T03:32:38.424Z,40.43
2022-10-01T03:35:40.586Z,41.07
2022-10-01T03:38:42.742Z,43.35
2022-10-01T03:41:45.076Z,44.22
2022-10-01T03:44:47.974Z,45.53
2022-10-01T03:47:53.400Z,41.90
2022-10-01T03:50:57.527Z,47.57
2022-10-01T03:53:59.781Z,48.45
2022-10-01T03:57:01.979Z,46.53
2022-10-01T04:00:05.532Z,45.72
2022-10-01T04:03:14.813Z,57.27
2022-10-01T04:06:17.032Z,42.50
2022-10-01T04:09:19.131Z,42.00
2022-10-01T04:12:21.244Z,38.70
2022-10-01T04:15:24.293Z,40.95
2022-10-01T04:18:26.463Z,38.33
2022-10-01T04:21:29.117Z,42.53
2022-10-01T04:24:31.245Z,43.03
2022-10-01T04:27:33.384Z,43.45
2022-10-01T04:30:37.440Z,44.80
2022-10-01T04:33:39.614Z,42.27
2022-10-01T04:36:41.849Z,46.40
2022-10-01T04:39:43.994Z,48.05
2022-10-01T04:42:47.222Z,46.22
2022-10-01T04:45:50.040Z,42.38
2022-10-01T04:48:52.423Z,56.93
2022-10-01T04:51:54.596Z,47.23
2022-10-01T04:54:56.709Z,50.80
2022-10-01T04:57:59.638Z,45.58
2022-10-01T05:01:02.516Z,46.92
2022-10-01T05:04:04.670Z,48.33
2022-10-01T05:07:06.847Z,49.77
2022-10-01T05:10:12.323Z,47.35
2022-10-01T05:13:14.915Z,53.70
2022-10-01T05:16:17.102Z,57.30
2022-10-01T05:19:19.266Z,52.90
2022-10-01T05:22:21.425Z,55.90
2022-10-01T05:25:23.789Z,53.10
2022-10-01T05:28:28.103Z,52.05
2022-10-01T05:31:30.360Z,52.97
2022-10-01T05:34:32.768Z,47.80
2022-10-01T05:37:35.537Z,48.70
2022-10-01T05:40:37.728Z,43.97
2022-10-01T05:43:39.863Z,46.72
2022-10-01T05:46:43.650Z,46.45
2022-10-01T05:49:46.494Z,41.57
2022-10-01T05:52:53.286Z,45.23
2022-10-01T05:55:56.372Z,48.75
2022-10-01T05:58:59.874Z,46.03
2022-10-01T06:02:04.237Z,61.90
2022-10-01T06:05:07.903Z,51.87
2022-10-01T06:08:10.898Z,51.93
2022-10-01T06:11:13.886Z,60.67
2022-10-01T06:14:17.389Z,57.72
2022-10-01T06:17:20.277Z,55.03
2022-10-01T06:20:24.496Z,59.50
2022-10-01T06:23:26.893Z,51.80
2022-10-01T06:26:29.667Z,54.25
2022-10-01T06:29:31.953Z,51.15
2022-10-01T06:32:35.201Z,57.85
2022-10-01T06:35:42.898Z,57.27
2022-10-01T06:38:48.582Z,51.80
2022-10-01T06:41:50.739Z,53.72
2022-10-01T06:44:53.218Z,57.85
2022-10-01T06:48:02.674Z,50.70
2022-10-01T06:51:05.852Z,48.83
2022-10-01T06:54:08.655Z,49.23
2022-10-01T06:57:11.122Z,47.75
2022-10-01T07:00:14.665Z,49.55
2022-10-01T07:03:20.094Z,47.92
2022-10-01T07:06:22.227Z,48.23
2022-10-01T07:09:25.502Z,45.73
2022-10-01T07:12:27.823Z,41.38
2022-10-01T07:15:30.056Z,41.75
2022-10-01T07:18:32.190Z,39.13
2022-10-01T07:21:34.687Z,34.17
2022-10-01T07:24:37.053Z,34.67
2022-10-01T07:27:39.381Z,28.98
2022-10-01T07:30:43.180Z,39.65
2022-10-01T07:33:45.373Z,32.53
2022-10-01T07:36:48.977Z,31.43
2022-10-01T07:39:51.255Z,26.13
2022-10-01T07:42:54.944Z,29.77
2022-10-01T07:45:58.588Z,29.08
2022-10-01T07:49:01.643Z,34.17
2022-10-01T07:52:10.914Z,33.93
2022-10-01T07:55:16.231Z,27.90
2022-10-01T07:58:18.985Z,33.15
2022-10-01T08:01:21.283Z,33.47
2022-10-01T08:04:41.813Z,30.52
2022-10-01T08:07:45.435Z,32.23
2022-10-01T08:10:50.104Z,28.47
2022-10-01T08:13:53.333Z,27.30
2022-10-01T08:16:57.318Z,21.40
2022-10-01T08:20:00.661Z,20.25
2022-10-01T08:23:04.980Z,20.10
2022-10-01T08:26:08.886Z,21.60
2022-10-01T08:29:16.309Z,19.83
2022-10-01T08:32:20.702Z,20.50
2022-10-01T08:35:25.133Z,17.83
2022-10-01T08:38:28.220Z,20.33
2022-10-01T08:41:41.258Z,18.53
2022-10-01T08:44:46.495Z,19.15
2022-10-01T08:48:47.650Z,18.75
2022-10-01T08:51:56.292Z,20.42
2022-10-01T08:55:11.867Z,21.80
2022-10-01T08:58:21.942Z,21.07
2022-10-01T09:01:24.880Z,21.58
2022-10-01T09:04:27.568Z,22.92
2022-10-01T09:07:59.197Z,22.48
2022-10-01T09:11:05.941Z,21.97
2022-10-01T09:14:38.735Z,22.47
2022-10-01T09:18:05.867Z,22.23
2022-10-01T09:21:16.375Z,21.15
2022-10-01T09:24:43.866Z,20.20
2022-10-01T09:27:46.869Z,23.20
2022-10-01T09:31:09.346Z,30.23
2022-10-01T09:34:17.074Z,27.63
2022-10-01T09:37:26.104Z,25.30
2022-10-01T09:40:41.403Z,21.95
2022-10-01T09:43:43.983Z,20.63
2022-10-01T09:46:46.853Z,20.93
2022-10-01T09:49:49.351Z,21.85
2022-10-01T09:52:52.782Z,20.52
2022-10-01T09:55:59.113Z,21.25
2022-10-01T09:59:05.201Z,20.37
2022-10-01T10:02:17.708Z,19.40
2022-10-01T10:05:28.539Z,21.60
2022-10-01T10:08:34.033Z,20.73
2022-10-01T10:11:36.540Z,18.13
2022-10-01T10:14:42.302Z,19.33
2022-10-01T10:17:49.247Z,18.43
2022-10-01T10:20:52.829Z,20.45
2022-10-01T10:24:00.669Z,21.65
2022-10-01T10:27:06.095Z,20.92
2022-10-01T10:30:16.514Z,21.23
2022-10-01T10:33:20.899Z,21.73
2022-10-01T10:36:33.200Z,22.27
2022-10-01T10:39:37.916Z,23.00
2022-10-01T10:42:47.724Z,19.45
2022-10-01T10:45:56.408Z,19.63
2022-10-01T10:49:30.407Z,20.47
2022-10-01T10:52:36.648Z,19.83
2022-10-01T10:55:40.484Z,18.92
2022-10-01T10:58:45.524Z,18.65
2022-10-01T11:01:49.199Z,17.00
2022-10-01T11:04:53.654Z,18.30
2022-10-01T11:08:01.769Z,17.35
2022-10-01T11:11:22.884Z,19.02
2022-10-01T11:14:43.997Z,18.35
2022-10-01T11:18:24.872Z,15.63
2022-10-01T11:21:36.674Z,17.50
2022-10-01T11:25:04.142Z,18.83
2022-10-01T11:28:27.650Z,20.23
2022-10-01T11:31:53.132Z,20.80
2022-10-01T11:35:15.374Z,18.60
2022-10-01T11:38:41.713Z,17.60
2022-10-01T11:41:49.618Z,19.13
2022-10-01T11:45:00.777Z,17.40
2022-10-01T11:48:14.677Z,19.92
2022-10-01T11:51:20.735Z,17.97
2022-10-01T11:54:25.926Z,17.23
2022-10-01T11:57:58.232Z,16.80
2022-10-01T12:01:05.752Z,18.95
2022-10-01T12:04:19.906Z,18.17
2022-10-01T12:07:40.475Z,21.50
2022-10-01T12:10:59.302Z,15.33
2022-10-01T12:14:09.919Z,13.52
2022-10-01T12:17:20.770Z,12.02
2022-10-01T12:20:42.287Z,11.30
2022-10-01T12:23:57.166Z,12.33
2022-10-01T12:26:59.256Z,12.23
2022-10-01T12:30:23.381Z,11.60
2022-10-01T12:34:03.104Z,11.40
2022-10-01T12:37:14.496Z,14.90
2022-10-01T12:40:35.784Z,17.33
2022-10-01T12:44:06.728Z,16.10
2022-10-01T12:47:24.777Z,15.55
2022-10-01T12:50:45.219Z,18.17
2022-10-01T12:54:13.399Z,14.95
2022-10-01T12:57:24.624Z,14.17
2022-10-01T13:00:32.002Z,13.23
2022-10-01T13:04:03.509Z,14.40
2022-10-01T13:07:23.923Z,15.75
2022-10-01T13:11:20.615Z,12.65
2022-10-01T13:14:23.134Z,14.40
2022-10-01T13:17:34.955Z,12.43
2022-10-01T13:20:43.408Z,11.68
2022-10-01T13:23:51.623Z,12.43
2022-10-01T13:26:57.816Z,11.40
2022-10-01T13:30:16.367Z,11.30
2022-10-01T13:33:32.144Z,11.97
2022-10-01T13:36:35.609Z,10.95
2022-10-01T13:39:42.120Z,10.10
2022-10-01T13:42:46.117Z,11.63
2022-10-01T13:45:50.994Z,11.20
2022-10-01T13:48:53.396Z,10.40
2022-10-01T13:51:56.077Z,10.65
2022-10-01T13:55:00.384Z,10.32
2022-10-01T13:58:08.003Z,10.52
2022-10-01T14:01:19.974Z,11.90
2022-10-01T14:04:40.650Z,9.23
2022-10-01T14:07:43.676Z,10.30
2022-10-01T14:11:19.404Z,9.13
2022-10-01T14:14:47.666Z,9.85
2022-10-01T14:17:53.318Z,9.10
2022-10-01T14:21:08.873Z,9.97
2022-10-01T14:24:17.063Z,10.05
2022-10-01T14:27:33.657Z,9.18
2022-10-01T14:30:46.360Z,11.18
2022-10-01T14:34:02.629Z,12.73
2022-10-01T14:37:07.981Z,24.00
2022-10-01T14:40:22.483Z,25.67
2022-10-01T14:43:26.891Z,19.45
2022-10-01T14:46:29.063Z,18.42
2022-10-01T14:49:32.900Z,23.43
2022-10-01T14:52:35.814Z,21.20
2022-10-01T14:55:37.989Z,21.48
2022-10-01T14:58:55.079Z,21.67
2022-10-01T15:01:59.761Z,22.88
2022-10-01T15:05:02.044Z,25.60
2022-10-01T15:08:36.241Z,26.63
2022-10-01T15:11:43.542Z,25.90
2022-10-01T15:14:47.355Z,24.98
2022-10-01T15:17:50.118Z,23.02
2022-10-01T15:20:56.519Z,21.20
2022-10-01T15:23:58.956Z,16.40
2022-10-01T15:27:01.764Z,11.27
2022-10-01T15:30:06.176Z,10.27
2022-10-01T15:33:21.157Z,8.38
2022-10-01T15:36:23.336Z,9.30
2022-10-01T15:39:38.504Z,7.27
2022-10-01T15:43:07.588Z,7.53
2022-10-01T15:46:22.963Z,8.18
2022-10-01T15:49:26.018Z,8.13
2022-10-01T15:52:49.191Z,9.30
2022-10-01T15:55:57.060Z,7.80
2022-10-01T15:59:11.015Z,7.72
2022-10-01T16:02:20.743Z,8.70
2022-10-01T16:05:26.027Z,6.88
2022-10-01T16:08:34.578Z,5.77
2022-10-01T16:11:58.210Z,6.97
2022-10-01T16:15:03.750Z,5.80
2022-10-01T16:18:21.917Z,6.68
2022-10-01T16:21:24.510Z,6.00
2022-10-01T16:24:29.579Z,5.20
2022-10-01T16:27:35.712Z,4.87
2022-10-01T16:30:37.826Z,4.60
2022-10-01T16:33:39.969Z,4.53
2022-10-01T16:36:42.291Z,5.32
2022-10-01T16:39:44.799Z,7.03
2022-10-01T16:42:48.160Z,4.97
2022-10-01T16:45:50.771Z,4.53
2022-10-01T16:48:52.971Z,8.52
2022-10-01T16:51:55.447Z,5.40
2022-10-01T16:54:57.687Z,4.97
2022-10-01T16:58:02.085Z,7.20
2022-10-01T17:01:08.748Z,5.90
2022-10-01T17:04:13.438Z,7.03
2022-10-01T17:07:15.553Z,8.65
2022-10-01T17:10:19.505Z,11.13
2022-10-01T17:13:21.652Z,4.53
2022-10-01T17:16:24.733Z,7.25
2022-10-01T17:19:27.015Z,4.40
2022-10-01T17:22:29.114Z,4.28
2022-10-01T17:25:34.481Z,5.40
2022-10-01T17:28:36.679Z,5.37
2022-10-01T17:31:40.895Z,5.50
2022-10-01T17:34:43.129Z,4.13
2022-10-01T17:37:45.339Z,5.57
2022-10-01T17:40:51.771Z,7.97
2022-10-01T17:43:57.720Z,5.20
2022-10-01T17:46:59.796Z,9.07
2022-10-01T17:50:05.895Z,5.68
2022-10-01T17:53:08.063Z,7.18
2022-10-01T17:56:14.517Z,4.27
2022-10-01T17:59:16.885Z,3.80
2022-10-01T18:02:40.859Z,4.50
2022-10-01T18:05:45.414Z,3.38
2022-10-01T18:08:55.627Z,4.55
2022-10-01T18:11:59.084Z,3.57
2022-10-01T18:15:05.551Z,4.03
2022-10-01T18:19:24.331Z,4.82
2022-10-01T18:21:32.550Z,5.72
2022-10-01T18:24:35.542Z,4.60
2022-10-01T18:27:38.740Z,4.17
2022-10-01T18:30:41.729Z,4.17
2022-10-01T18:33:55.952Z,5.65
2022-10-01T18:37:05.505Z,8.93
2022-10-01T18:40:14.388Z,5.13
2022-10-01T18:43:23.253Z,7.20
2022-10-01T18:46:46.849Z,8.37
2022-10-01T18:49:58.658Z,48.45
2022-10-01T18:53:06.545Z,68.50
2022-10-01T18:56:18.874Z,33.85
2022-10-01T18:59:33.758Z,8.87
2022-10-01T19:02:38.834Z,9.87
2022-10-01T19:06:22.327Z,12.18
2022-10-01T19:09:37.781Z,10.85
2022-10-01T19:12:48.627Z,5.90
2022-10-01T19:16:02.723Z,6.83
2022-10-01T19:19:26.226Z,6.57
2022-10-01T19:22:41.772Z,5.85
2022-10-01T19:25:50.415Z,7.03
2022-10-01T19:29:02.361Z,6.03
2022-10-01T19:32:16.793Z,6.90
2022-10-01T19:35:26.387Z,7.43
2022-10-01T19:38:37.619Z,8.88
2022-10-01T19:41:47.566Z,7.70
2022-10-01T19:44:54.306Z,8.02
2022-10-01T19:48:09.837Z,8.50
2022-10-01T19:51:13.582Z,7.47
2022-10-01T19:54:21.532Z,52.40
2022-10-01T19:57:26.161Z,11.35
2022-10-01T20:00:29.359Z,7.80
2022-10-01T20:03:38.456Z,6.50
2022-10-01T20:06:44.507Z,8.40
2022-10-01T20:10:13.750Z,6.75
2022-10-01T20:13:34.767Z,7.32
2022-10-01T20:16:41.893Z,6.35
2022-10-01T20:20:13.415Z,6.47
2022-10-01T20:23:35.247Z,6.03
2022-10-01T20:26:45.892Z,6.22
2022-10-01T20:30:06.008Z,7.22
2022-10-01T20:33:25.253Z,6.22
2022-10-01T20:36:46.054Z,6.40
2022-10-01T20:39:52.717Z,6.10
2022-10-01T20:43:04.999Z,5.88
2022-10-01T20:46:14.618Z,5.50
2022-10-01T20:50:04.020Z,5.97
2022-10-01T20:53:18.118Z,6.17
2022-10-01T20:56:32.851Z,6.27
2022-10-01T20:59:43.453Z,7.18
2022-10-01T21:02:51.239Z,6.32
2022-10-01T21:05:56.719Z,6.13
2022-10-01T21:09:21.881Z,5.57
2022-10-01T21:12:36.105Z,8.00
2022-10-01T21:15:48.518Z,6.25
2022-10-01T21:19:14.171Z,6.13
2022-10-01T21:23:03.643Z,6.55
2022-10-01T21:26:18.499Z,6.97
2022-10-01T21:29:34.893Z,5.43
2022-10-01T21:32:47.003Z,4.65
2022-10-01T21:35:59.504Z,5.05
2022-10-01T21:39:05.160Z,4.78
2022-10-01T21:42:37.435Z,4.63
2022-10-01T21:45:42.204Z,4.73
2022-10-01T21:49:10.453Z,5.13
2022-10-01T21:52:22.862Z,4.90
2022-10-01T21:56:04.052Z,5.38
2022-10-01T21:59:30.912Z,5.23
2022-10-01T22:02:36.861Z,5.53
2022-10-01T22:05:57.770Z,5.45
2022-10-01T22:09:03.631Z,5.93
2022-10-01T22:12:07.955Z,5.32
2022-10-01T22:15:30.509Z,5.93
2022-10-01T22:18:40.564Z,4.90
2022-10-01T22:21:45.907Z,3.88
2022-10-01T22:24:56.272Z,4.72
2022-10-01T22:28:08.336Z,4.05
2022-10-01T22:31:16.543Z,3.83
2022-10-01T22:34:23.062Z,4.50
2022-10-01T22:37:34.552Z,4.28
2022-10-01T22:40:44.405Z,4.72
2022-10-01T22:43:47.396Z,5.00
2022-10-01T22:47:08.406Z,4.83
2022-10-01T22:50:36.176Z,3.60
2022-10-01T22:54:02.003Z,3.92
2022-10-01T22:57:18.716Z,3.47
2022-10-01T23:00:21.812Z,3.65
2022-10-01T23:03:49.279Z,4.57
2022-10-01T23:07:05.068Z,5.53
2022-10-01T23:10:37.139Z,3.78
2022-10-01T23:14:07.063Z,3.75
2022-10-01T23:17:31.038Z,3.67
2022-10-01T23:21:01.895Z,4.50
2022-10-01T23:24:14.483Z,3.53
2022-10-01T23:27:30.561Z,4.57
2022-10-01T23:30:59.306Z,3.65
2022-10-01T23:34:04.268Z,3.50
2022-10-01T23:37:10.643Z,4.43
2022-10-01T23:40:14.980Z,4.00
2022-10-01T23:43:29.872Z,4.13
2022-10-01T23:46:34.034Z,3.55
2022-10-01T23:49:37.417Z,4.95
2022-10-01T23:52:47.260Z,5.50
2022-10-01T23:56:27.824Z,4.37
2022-10-01T23:59:35.187Z,5.20
